createdAt,value
2018-06-28T05:12:19.000Z,51.04
2018-06-28T05:12:29.000Z,50.94
2018-06-28T05:12:39.000Z,50.84
2018-06-28T05:12:49.000Z,50.84
2018-06-28T05:12:59.000Z,51.14
2018-06-28T05:13:09.000Z,50.65
2018-06-28T05:13:19.000Z,50.92
2018-06-28T05:13:29.000Z,50.92
2018-06-28T05:13:39.000Z,50.94
2018-06-28T05:13:53.000Z,50.82
2018-06-28T05:14:03.000Z,50.92
2018-06-28T05:14:13.000Z,50.92
2018-06-28T05:14:23.000Z,50.82
2018-06-28T05:14:33.000Z,50.72
2018-06-28T05:14:43.000Z,50.72
2018-06-28T05:14:53.000Z,51.01
2018-06-28T05:15:03.000Z,51.18
2018-06-28T05:15:13.000Z,51.37
2018-06-28T05:15:23.000Z,51.37
2018-06-28T05:15:33.000Z,51.57
2018-06-28T05:15:43.000Z,51.76
2018-06-28T05:15:53.000Z,51.96
2018-06-28T05:16:03.000Z,51.86
2018-06-28T05:16:13.000Z,52.06
2018-06-28T05:16:23.000Z,52.15
2018-06-28T05:16:33.000Z,52.54
2018-06-28T05:16:43.000Z,52.25
2018-06-28T05:16:53.000Z,52.42
2018-06-28T05:17:03.000Z,52.61
2018-06-28T05:17:13.000Z,53.49
2018-06-28T05:17:23.000Z,53.19
2018-06-28T05:17:33.000Z,53.19
2018-06-28T05:17:43.000Z,53.49
2018-06-28T05:17:53.000Z,53.17
2018-06-28T05:18:04.000Z,53.39
2018-06-28T05:18:14.000Z,53.75
2018-06-28T05:18:24.000Z,53.94
2018-06-28T05:18:34.000Z,53.85
2018-06-28T05:18:44.000Z,54.03
2018-06-28T05:18:54.000Z,54.43
2018-06-28T05:19:04.000Z,54.52
2018-06-28T05:19:13.000Z,54.62
2018-06-28T05:19:24.000Z,54.81
2018-06-28T05:19:34.000Z,54.69
2018-06-28T05:19:44.000Z,55.07
2018-06-28T05:19:54.000Z,55.27
2018-06-28T05:20:04.000Z,55.27
2018-06-28T05:20:14.000Z,55.76
2018-06-28T05:20:23.000Z,55.76
2018-06-28T05:20:33.000Z,56.24
2018-06-28T05:20:43.000Z,56.52
2018-06-28T05:20:53.000Z,56.72
2018-06-28T05:21:03.000Z,56.70
2018-06-28T05:21:13.000Z,56.60
2018-06-28T05:21:23.000Z,56.79
2018-06-28T05:21:33.000Z,56.79
2018-06-28T05:21:43.000Z,56.98
2018-06-28T05:21:53.000Z,57.08
2018-06-28T05:22:03.000Z,57.46
2018-06-28T05:22:13.000Z,57.34
2018-06-28T05:22:23.000Z,57.63
2018-06-28T05:22:33.000Z,58.12
2018-06-28T05:22:43.000Z,58.02
2018-06-28T05:22:54.000Z,58.70
2018-06-28T05:23:04.000Z,58.86
2018-06-28T05:23:14.000Z,58.76
2018-06-28T05:23:24.000Z,59.34
2018-06-28T05:23:34.000Z,59.83
2018-06-28T05:23:44.000Z,59.63
2018-06-28T05:23:54.000Z,59.80
2018-06-28T05:24:04.000Z,60.47
2018-06-28T05:24:14.000Z,60.47
2018-06-28T05:24:24.000Z,60.47
2018-06-28T05:24:34.000Z,60.47
2018-06-28T05:24:44.000Z,60.96
2018-06-28T05:24:54.000Z,60.57
2018-06-28T05:25:04.000Z,60.86
2018-06-28T05:25:14.000Z,61.15
2018-06-28T05:25:24.000Z,61.25
2018-06-28T05:25:45.000Z,61.63
2018-06-28T05:25:55.000Z,61.73
2018-06-28T05:26:15.000Z,61.80
2018-06-28T05:26:25.000Z,61.70
2018-06-28T05:26:35.000Z,61.41
2018-06-28T05:26:45.000Z,61.60
2018-06-28T05:26:55.000Z,62.57
2018-06-28T05:27:13.000Z,62.37
2018-06-28T05:27:23.000Z,62.54
2018-06-28T05:27:33.000Z,62.73
2018-06-28T05:27:43.000Z,63.02
2018-06-28T05:27:53.000Z,62.92
2018-06-28T05:28:03.000Z,63.02
2018-06-28T05:28:13.000Z,63.31
2018-06-28T05:28:23.000Z,63.31
2018-06-28T05:28:33.000Z,63.12
2018-06-28T05:28:43.000Z,63.50
2018-06-28T05:28:53.000Z,64.08
2018-06-28T05:29:03.000Z,64.28
2018-06-28T05:29:13.000Z,64.56
2018-06-28T05:29:23.000Z,65.34
2018-06-28T05:29:33.000Z,65.53
2018-06-28T05:29:43.000Z,65.43
2018-06-28T05:29:53.000Z,64.95
2018-06-28T05:30:03.000Z,64.76
2018-06-28T05:30:13.000Z,64.86
2018-06-28T05:30:23.000Z,64.08
2018-06-28T05:30:33.000Z,64.37
2018-06-28T05:30:43.000Z,64.37
2018-06-28T05:30:54.000Z,64.28
2018-06-28T05:31:05.000Z,64.18
2018-06-28T05:31:15.000Z,64.28
2018-06-28T05:31:25.000Z,64.37
2018-06-28T05:31:35.000Z,64.37
2018-06-28T05:31:45.000Z,64.86
2018-06-28T05:31:55.000Z,64.66
2018-06-28T05:32:05.000Z,65.34
2018-06-28T05:32:15.000Z,65.14
2018-06-28T05:32:25.000Z,65.24
2018-06-28T05:32:35.000Z,64.95
2018-06-28T05:32:45.000Z,65.14
2018-06-28T05:32:54.000Z,64.66
2018-06-28T05:33:05.000Z,64.66
2018-06-28T05:33:15.000Z,64.18
2018-06-28T05:33:24.000Z,64.08
2018-06-28T05:33:35.000Z,63.79
2018-06-28T05:33:45.000Z,63.89
2018-06-28T05:33:54.000Z,63.21
2018-06-28T05:34:04.000Z,63.60
2018-06-28T05:34:16.000Z,63.50
2018-06-28T05:34:26.000Z,63.40
2018-06-28T05:34:36.000Z,63.31
2018-06-28T05:34:46.000Z,63.12
2018-06-28T05:34:56.000Z,63.31
2018-06-28T05:35:06.000Z,63.21
2018-06-28T05:35:16.000Z,63.21
2018-06-28T05:35:26.000Z,63.21
2018-06-28T05:35:36.000Z,63.50
2018-06-28T05:35:46.000Z,63.12
2018-06-28T05:35:56.000Z,63.60
2018-06-28T05:36:06.000Z,63.40
2018-06-28T05:36:16.000Z,63.21
2018-06-28T05:36:26.000Z,62.92
2018-06-28T05:36:36.000Z,63.21
2018-06-28T05:36:47.000Z,62.82
2018-06-28T05:36:57.000Z,63.02
2018-06-28T05:37:07.000Z,62.63
2018-06-28T05:37:17.000Z,63.02
2018-06-28T05:37:27.000Z,62.44
2018-06-28T05:37:37.000Z,62.66
2018-06-28T05:37:47.000Z,62.15
2018-06-28T05:37:57.000Z,61.80
2018-06-28T05:38:07.000Z,61.96
2018-06-28T05:38:17.000Z,61.60
2018-06-28T05:38:27.000Z,61.31
2018-06-28T05:38:37.000Z,61.70
2018-06-28T05:38:50.000Z,61.57
2018-06-28T05:39:00.000Z,61.80
2018-06-28T05:39:10.000Z,61.51
2018-06-28T05:39:21.000Z,61.51
2018-06-28T05:39:30.000Z,61.22
2018-06-28T05:39:41.000Z,61.02
2018-06-28T05:39:51.000Z,61.02
2018-06-28T05:40:00.000Z,61.41
2018-06-28T05:40:11.000Z,61.22
2018-06-28T05:40:22.000Z,61.22
2018-06-28T05:40:32.000Z,61.51
2018-06-28T05:40:42.000Z,60.73
2018-06-28T05:40:52.000Z,60.64
2018-06-28T05:41:02.000Z,60.73
2018-06-28T05:41:12.000Z,60.73
2018-06-28T05:41:22.000Z,60.35
2018-06-28T05:41:32.000Z,60.54
2018-06-28T05:41:42.000Z,60.44
2018-06-28T05:41:52.000Z,60.09
2018-06-28T05:42:02.000Z,60.09
2018-06-28T05:42:12.000Z,59.58
2018-06-28T05:42:22.000Z,59.70
2018-06-28T05:42:32.000Z,59.60
2018-06-28T05:42:42.000Z,59.70
2018-06-28T05:42:52.000Z,59.70
2018-06-28T05:43:02.000Z,59.70
2018-06-28T05:43:12.000Z,59.51
2018-06-28T05:43:22.000Z,59.41
2018-06-28T05:43:32.000Z,58.83
2018-06-28T05:43:42.000Z,59.02
2018-06-28T05:43:52.000Z,58.93
2018-06-28T05:44:02.000Z,59.31
2018-06-28T05:44:12.000Z,58.83
2018-06-28T05:44:22.000Z,58.45
2018-06-28T05:44:39.000Z,58.64
2018-06-28T05:44:50.000Z,58.83
2018-06-28T05:45:00.000Z,58.25
2018-06-28T05:45:10.000Z,58.15
2018-06-28T05:45:20.000Z,58.54
2018-06-28T05:45:30.000Z,58.25
2018-06-28T05:45:40.000Z,58.25
2018-06-28T05:45:50.000Z,58.25
2018-06-28T05:46:00.000Z,58.47
2018-06-28T05:46:10.000Z,58.45
2018-06-28T05:46:20.000Z,58.28
2018-06-28T05:46:30.000Z,58.28
2018-06-28T05:46:40.000Z,57.99
2018-06-28T05:46:50.000Z,57.99
2018-06-28T05:47:00.000Z,57.89
2018-06-28T05:47:10.000Z,57.41
2018-06-28T05:47:20.000Z,57.70
2018-06-28T05:47:30.000Z,57.31
2018-06-28T05:47:40.000Z,57.31
2018-06-28T05:47:50.000Z,57.54
2018-06-28T05:48:00.000Z,57.15
2018-06-28T05:48:10.000Z,57.24
2018-06-28T05:48:20.000Z,57.15
2018-06-28T05:48:30.000Z,56.86
2018-06-28T05:48:40.000Z,57.34
2018-06-28T05:48:50.000Z,56.57
2018-06-28T05:49:00.000Z,57.15
2018-06-28T05:49:10.000Z,57.73
2018-06-28T05:49:20.000Z,58.44
2018-06-28T05:49:30.000Z,58.82
2018-06-28T05:49:40.000Z,59.69
2018-06-28T05:49:50.000Z,59.69
2018-06-28T05:50:00.000Z,59.69
2018-06-28T05:50:10.000Z,60.27
2018-06-28T05:50:20.000Z,60.08
2018-06-28T05:50:30.000Z,60.47
2018-06-28T05:50:40.000Z,60.17
2018-06-28T05:50:50.000Z,60.57
2018-06-28T05:51:00.000Z,60.40
2018-06-28T05:51:10.000Z,60.47
2018-06-28T05:51:20.000Z,60.40
2018-06-28T05:51:30.000Z,60.30
2018-06-28T05:51:40.000Z,60.40
2018-06-28T05:51:50.000Z,60.30
2018-06-28T05:52:00.000Z,60.40
2018-06-28T05:52:10.000Z,60.30
2018-06-28T05:52:20.000Z,60.04
2018-06-28T05:52:30.000Z,59.94
2018-06-28T05:52:40.000Z,60.14
2018-06-28T05:52:50.000Z,59.75
2018-06-28T05:53:00.000Z,59.36
2018-06-28T05:53:11.000Z,59.75
2018-06-28T05:53:21.000Z,59.84
2018-06-28T05:53:34.000Z,59.84
2018-06-28T05:53:56.000Z,59.07
2018-06-28T05:54:06.000Z,59.07
2018-06-28T05:54:16.000Z,59.39
2018-06-28T05:54:26.000Z,58.81
2018-06-28T05:54:36.000Z,58.81
2018-06-28T05:54:46.000Z,58.52
2018-06-28T05:54:56.000Z,58.62
2018-06-28T05:55:06.000Z,58.81
2018-06-28T05:55:16.000Z,58.81
2018-06-28T05:55:26.000Z,58.81
2018-06-28T05:55:36.000Z,58.33
2018-06-28T05:55:46.000Z,58.74
2018-06-28T05:55:56.000Z,58.65
2018-06-28T05:56:10.000Z,58.06
2018-06-28T05:56:20.000Z,58.36
2018-06-28T05:56:40.000Z,57.68
2018-06-28T05:56:50.000Z,57.68
2018-06-28T05:57:00.000Z,57.39
2018-06-28T05:57:10.000Z,57.48
2018-06-28T05:57:20.000Z,57.58
2018-06-28T05:57:30.000Z,57.09
2018-06-28T05:57:40.000Z,57.87
2018-06-28T05:57:50.000Z,57.09
2018-06-28T05:58:00.000Z,57.29
2018-06-28T05:58:10.000Z,56.71
2018-06-28T05:58:20.000Z,57.00
2018-06-28T05:58:30.000Z,56.83
2018-06-28T05:58:40.000Z,56.54
2018-06-28T05:58:50.000Z,56.74
2018-06-28T05:59:00.000Z,57.03
2018-06-28T05:59:10.000Z,56.54
2018-06-28T05:59:20.000Z,56.74
2018-06-28T06:00:52.000Z,55.99
2018-06-28T06:01:02.000Z,56.09
2018-06-28T06:01:31.000Z,55.89
2018-06-28T06:01:41.000Z,55.89
2018-06-28T06:01:51.000Z,56.09
2018-06-28T06:02:01.000Z,55.50
2018-06-28T06:02:11.000Z,55.31
2018-06-28T06:02:21.000Z,55.60
2018-06-28T06:02:31.000Z,55.41
2018-06-28T06:02:41.000Z,55.21
2018-06-28T06:02:51.000Z,54.92
2018-06-28T06:03:01.000Z,55.02
2018-06-28T06:09:08.000Z,53.06
2018-06-28T06:09:18.000Z,52.67
2018-06-28T06:09:28.000Z,53.06
2018-06-28T06:09:38.000Z,52.86
2018-06-28T06:09:48.000Z,52.67
2018-06-28T06:09:58.000Z,52.76
2018-06-28T06:10:40.000Z,52.21
2018-06-28T06:10:51.000Z,52.21
2018-06-28T06:11:01.000Z,51.82
2018-06-28T06:11:11.000Z,52.21
2018-06-28T06:11:21.000Z,52.01
2018-06-28T06:11:30.000Z,52.11
2018-06-28T06:11:41.000Z,52.21
2018-06-28T06:13:46.000Z,51.94
2018-06-28T06:13:56.000Z,51.94
2018-06-28T06:14:06.000Z,51.75
2018-06-28T06:18:43.000Z,51.67
2018-06-28T06:18:53.000Z,51.58
2018-06-28T06:19:03.000Z,51.61
2018-06-28T06:19:13.000Z,51.61
2018-06-28T06:19:23.000Z,51.39
2018-06-28T06:19:34.000Z,51.41
2018-06-28T06:19:44.000Z,51.41
2018-06-28T06:19:54.000Z,51.41
2018-06-28T06:20:04.000Z,51.21
2018-06-28T06:20:14.000Z,51.21
2018-06-28T06:20:24.000Z,51.31
2018-06-28T06:20:34.000Z,51.21
2018-06-28T06:20:44.000Z,51.02
2018-06-28T06:20:54.000Z,51.02
2018-06-28T06:21:04.000Z,50.92
2018-06-28T06:21:14.000Z,50.82
2018-06-28T06:21:24.000Z,50.73
2018-06-28T06:21:34.000Z,50.53
2018-06-28T06:21:44.000Z,50.34
2018-06-28T06:21:54.000Z,50.63
2018-06-28T06:22:04.000Z,50.34
2018-06-28T06:22:14.000Z,50.43
2018-06-28T06:22:25.000Z,50.53
2018-06-28T06:22:35.000Z,50.63
2018-06-28T06:22:45.000Z,50.34
2018-06-28T06:22:58.000Z,50.14
2018-06-28T06:23:08.000Z,50.04
2018-06-28T06:23:18.000Z,49.76
2018-06-28T06:23:28.000Z,49.76
2018-06-28T06:23:38.000Z,49.85
2018-06-28T06:23:48.000Z,49.78
2018-06-28T06:23:58.000Z,49.68
2018-06-28T06:24:08.000Z,49.78
2018-06-28T06:24:18.000Z,49.49
2018-06-28T06:24:28.000Z,50.07
2018-06-28T06:24:38.000Z,49.19
2018-06-28T06:24:48.000Z,49.49
2018-06-28T06:24:58.000Z,49.00
2018-06-28T06:25:08.000Z,47.83
2018-06-28T06:25:18.000Z,47.15
2018-06-28T06:25:28.000Z,45.78
2018-06-28T06:25:38.000Z,45.39
2018-06-28T06:25:48.000Z,44.13
2018-06-28T06:25:58.000Z,43.84
2018-06-28T06:26:08.000Z,42.86
2018-06-28T06:26:18.000Z,42.96
2018-06-28T06:26:29.000Z,42.57
2018-06-28T06:26:39.000Z,42.28
2018-06-28T06:26:49.000Z,42.18
2018-06-28T06:26:59.000Z,42.18
2018-06-28T06:27:09.000Z,41.60
2018-06-28T06:27:19.000Z,41.40
2018-06-28T06:27:29.000Z,41.20
2018-06-28T06:27:39.000Z,40.91
2018-06-28T06:27:49.000Z,40.41
2018-06-28T06:27:59.000Z,40.60
2018-06-28T06:28:09.000Z,40.60
2018-06-28T06:28:19.000Z,40.50
2018-06-28T06:28:29.000Z,40.60
2018-06-28T06:28:39.000Z,40.50
2018-06-28T06:28:49.000Z,40.41
2018-06-28T06:28:59.000Z,40.41
2018-06-28T06:29:09.000Z,40.50
2018-06-28T06:29:19.000Z,40.41
2018-06-28T06:29:29.000Z,40.60
2018-06-28T06:29:39.000Z,40.68
2018-06-28T06:29:49.000Z,40.58
2018-06-28T06:29:59.000Z,40.68
2018-06-28T06:30:09.000Z,40.78
2018-06-28T06:30:19.000Z,40.97
2018-06-28T06:30:29.000Z,40.88
2018-06-28T06:30:42.000Z,41.24
2018-06-28T06:30:52.000Z,41.34
2018-06-28T06:31:02.000Z,41.34
2018-06-28T06:31:12.000Z,41.51
2018-06-28T06:31:22.000Z,41.61
2018-06-28T06:31:32.000Z,41.71
2018-06-28T06:31:42.000Z,41.80
2018-06-28T06:31:52.000Z,41.61
2018-06-28T06:32:02.000Z,41.78
2018-06-28T06:32:12.000Z,41.98
2018-06-28T06:32:25.000Z,41.98
2018-06-28T06:32:35.000Z,41.98
2018-06-28T06:32:45.000Z,41.88
2018-06-28T06:32:55.000Z,42.18
2018-06-28T06:33:05.000Z,42.27
2018-06-28T06:33:15.000Z,42.56
2018-06-28T06:33:25.000Z,42.44
2018-06-28T06:33:35.000Z,42.46
2018-06-28T06:33:45.000Z,42.44
2018-06-28T06:33:55.000Z,42.54
2018-06-28T06:34:05.000Z,42.64
2018-06-28T06:34:17.000Z,42.64
2018-06-28T06:34:27.000Z,42.64
2018-06-28T06:34:37.000Z,42.83
2018-06-28T06:34:47.000Z,43.32
2018-06-28T06:34:57.000Z,43.30
2018-06-28T06:35:07.000Z,43.20
2018-06-28T06:35:17.000Z,42.71
2018-06-28T06:35:27.000Z,42.81
2018-06-28T06:35:37.000Z,42.91
2018-06-28T06:35:47.000Z,43.20
2018-06-28T06:35:57.000Z,43.01
2018-06-28T06:36:07.000Z,43.30
2018-06-28T06:36:17.000Z,43.49
2018-06-28T06:36:27.000Z,43.68
2018-06-28T06:36:37.000Z,44.17
2018-06-28T06:36:47.000Z,43.68
2018-06-28T06:36:57.000Z,44.56
2018-06-28T06:37:07.000Z,45.61
2018-06-28T06:37:17.000Z,46.77
2018-06-28T06:37:27.000Z,46.96
2018-06-28T06:37:37.000Z,46.96
2018-06-28T06:37:47.000Z,47.74
2018-06-28T06:37:57.000Z,48.61
2018-06-28T06:38:07.000Z,48.52
2018-06-28T06:38:17.000Z,49.00
2018-06-28T06:38:27.000Z,48.42
2018-06-28T06:38:37.000Z,48.30
2018-06-28T06:38:47.000Z,48.30
2018-06-28T06:39:00.000Z,48.59
2018-06-28T06:39:10.000Z,48.20
2018-06-28T06:39:23.000Z,48.10
2018-06-28T06:39:33.000Z,47.69
2018-06-28T06:39:43.000Z,47.79
2018-06-28T06:39:56.000Z,47.69
2018-06-28T06:40:06.000Z,47.60
2018-06-28T06:40:16.000Z,47.50
2018-06-28T06:40:26.000Z,47.40
2018-06-28T06:40:36.000Z,47.30
2018-06-28T06:40:46.000Z,47.40
2018-06-28T06:40:56.000Z,47.50
2018-06-28T06:41:06.000Z,47.50
2018-06-28T06:41:16.000Z,47.79
2018-06-28T06:41:26.000Z,47.89
2018-06-28T06:41:36.000Z,47.69
2018-06-28T06:41:46.000Z,47.11
2018-06-28T06:41:56.000Z,46.82
2018-06-28T06:42:06.000Z,47.02
2018-06-28T06:42:16.000Z,46.92
2018-06-28T06:42:26.000Z,46.43
2018-06-28T06:42:36.000Z,46.62
2018-06-28T06:42:46.000Z,46.72
2018-06-28T06:42:56.000Z,46.33
2018-06-28T06:43:06.000Z,45.95
2018-06-28T06:43:16.000Z,46.24
2018-06-28T06:43:26.000Z,46.43
2018-06-28T06:45:29.000Z,46.33
2018-06-28T06:45:39.000Z,46.84
2018-06-28T06:45:49.000Z,46.65
2018-06-28T06:45:59.000Z,46.16
2018-06-28T06:46:09.000Z,45.97
2018-06-28T06:46:19.000Z,45.58
2018-06-28T06:46:29.000Z,45.39
2018-06-28T06:46:39.000Z,45.39
2018-06-28T06:46:49.000Z,45.00
2018-06-28T06:46:59.000Z,45.20
2018-06-28T06:47:09.000Z,45.39
2018-06-28T06:47:19.000Z,45.78
2018-06-28T06:47:29.000Z,45.87
2018-06-28T06:47:39.000Z,45.78
2018-06-28T06:47:49.000Z,45.87
2018-06-28T06:47:59.000Z,45.68
2018-06-28T06:48:09.000Z,45.78
2018-06-28T06:48:19.000Z,45.68
2018-06-28T06:48:29.000Z,45.68
2018-06-28T06:48:39.000Z,45.70
2018-06-28T06:48:49.000Z,45.70
2018-06-28T06:48:59.000Z,45.61
2018-06-28T06:49:09.000Z,45.80
2018-06-28T06:49:19.000Z,45.89
2018-06-28T06:49:32.000Z,45.61
2018-06-28T06:49:42.000Z,45.53
2018-06-28T06:49:52.000Z,45.62
2018-06-28T06:50:02.000Z,45.43
2018-06-28T06:50:12.000Z,45.62
2018-06-28T06:50:22.000Z,45.34
2018-06-28T06:50:32.000Z,45.34
2018-06-28T06:50:42.000Z,45.62
2018-06-28T06:50:56.000Z,45.72
2018-06-28T06:51:06.000Z,46.01
2018-06-28T06:51:16.000Z,46.98
2018-06-28T06:51:26.000Z,47.57
2018-06-28T06:51:36.000Z,48.05
2018-06-28T06:51:46.000Z,48.13
2018-06-28T06:51:56.000Z,48.61
2018-06-28T06:52:06.000Z,48.71
2018-06-28T06:52:16.000Z,48.80
2018-06-28T06:52:26.000Z,49.77
2018-06-28T06:52:36.000Z,50.65
2018-06-28T06:52:46.000Z,51.14
2018-06-28T06:52:56.000Z,51.89
2018-06-28T06:53:06.000Z,52.18
2018-06-28T06:53:16.000Z,52.56
2018-06-28T06:53:26.000Z,52.08
2018-06-28T06:53:36.000Z,51.96
2018-06-28T06:53:46.000Z,51.18
2018-06-28T06:53:56.000Z,50.89
2018-06-28T06:54:06.000Z,50.41
2018-06-28T06:54:16.000Z,49.92
2018-06-28T06:54:26.000Z,49.44
2018-06-28T06:54:36.000Z,49.73
2018-06-28T06:54:47.000Z,49.73
2018-06-28T06:54:57.000Z,49.73
2018-06-28T06:55:07.000Z,49.92
2018-06-28T06:55:17.000Z,49.34
2018-06-28T06:55:27.000Z,48.95
2018-06-28T06:55:37.000Z,48.08
2018-06-28T06:55:47.000Z,47.79
2018-06-28T06:55:57.000Z,47.79
2018-06-28T06:56:07.000Z,47.20
2018-06-28T06:56:17.000Z,47.30
2018-06-28T06:56:28.000Z,46.62
2018-06-28T06:56:38.000Z,46.33
2018-06-28T06:56:48.000Z,46.53
2018-06-28T06:56:58.000Z,45.75
2018-06-28T06:57:08.000Z,46.04
2018-06-28T06:57:18.000Z,46.04
2018-06-28T06:57:27.000Z,45.85
2018-06-28T06:57:37.000Z,45.78
2018-06-28T06:57:47.000Z,45.97
2018-06-28T06:57:57.000Z,45.78
2018-06-28T06:58:07.000Z,45.58
2018-06-28T06:58:17.000Z,45.48
2018-06-28T06:58:27.000Z,45.39
2018-06-28T06:58:37.000Z,45.51
2018-06-28T06:58:47.000Z,45.31
2018-06-28T06:58:57.000Z,45.51
2018-06-28T06:59:07.000Z,45.41
2018-06-28T06:59:17.000Z,45.12
2018-06-28T06:59:27.000Z,45.14
2018-06-28T06:59:38.000Z,44.95
2018-06-28T06:59:48.000Z,45.24
2018-06-28T06:59:58.000Z,44.56
2018-06-28T07:00:08.000Z,44.56
2018-06-28T07:00:18.000Z,44.46
2018-06-28T07:00:28.000Z,43.71
2018-06-28T07:00:38.000Z,44.09
2018-06-28T07:00:48.000Z,43.51
2018-06-28T07:00:58.000Z,43.22
2018-06-28T07:01:08.000Z,43.02
2018-06-28T07:01:18.000Z,43.02
2018-06-28T07:01:28.000Z,42.85
2018-06-28T07:01:38.000Z,42.95
2018-06-28T07:01:48.000Z,43.34
2018-06-28T07:01:58.000Z,42.76
2018-06-28T07:02:08.000Z,42.76
2018-06-28T07:02:18.000Z,43.24
2018-06-28T07:02:28.000Z,42.85
2018-06-28T07:02:38.000Z,43.15
2018-06-28T07:02:48.000Z,42.85
2018-06-28T07:02:58.000Z,43.44
2018-06-28T07:03:08.000Z,43.73
2018-06-28T07:03:18.000Z,44.24
2018-06-28T07:03:28.000Z,43.55
2018-06-28T07:03:38.000Z,43.16
2018-06-28T07:03:48.000Z,42.97
2018-06-28T07:03:58.000Z,43.46
2018-06-28T07:04:08.000Z,42.78
2018-06-28T07:04:18.000Z,42.60
2018-06-28T07:04:28.000Z,42.02
2018-06-28T07:04:38.000Z,42.02
2018-06-28T07:04:48.000Z,42.11
2018-06-28T07:04:58.000Z,41.93
2018-06-28T07:05:18.000Z,41.73
2018-06-28T07:05:28.000Z,41.93
2018-06-28T07:05:38.000Z,41.83
2018-06-28T07:05:48.000Z,41.63
2018-06-28T07:05:58.000Z,41.55
2018-06-28T07:06:08.000Z,41.36
2018-06-28T07:06:18.000Z,41.26
2018-06-28T07:06:28.000Z,40.78
2018-06-28T07:06:38.000Z,41.06
2018-06-28T07:06:48.000Z,40.88
2018-06-28T07:06:58.000Z,40.60
2018-06-28T07:07:08.000Z,40.21
2018-06-28T07:07:18.000Z,40.50
2018-06-28T07:07:28.000Z,40.01
2018-06-28T07:07:38.000Z,39.82
2018-06-28T07:07:48.000Z,39.92
2018-06-28T07:07:58.000Z,40.50
2018-06-28T07:08:08.000Z,40.52
2018-06-28T07:08:18.000Z,40.62
2018-06-28T07:08:28.000Z,40.23
2018-06-28T07:08:38.000Z,40.03
2018-06-28T07:08:48.000Z,39.94
2018-06-28T07:08:58.000Z,39.67
2018-06-28T07:09:08.000Z,39.76
2018-06-28T07:09:18.000Z,39.96
2018-06-28T07:09:28.000Z,39.76
2018-06-28T07:09:38.000Z,39.67
2018-06-28T07:09:48.000Z,39.86
2018-06-28T07:09:58.000Z,38.89
2018-06-28T07:10:08.000Z,38.51
2018-06-28T07:10:20.000Z,38.61
2018-06-28T07:10:30.000Z,38.22
2018-06-28T07:10:40.000Z,37.63
2018-06-28T07:10:50.000Z,37.63
2018-06-28T07:11:01.000Z,37.37
2018-06-28T07:11:11.000Z,37.63
2018-06-28T07:11:21.000Z,37.73
2018-06-28T07:11:31.000Z,37.63
2018-06-28T07:11:41.000Z,37.63
2018-06-28T07:11:51.000Z,37.54
2018-06-28T07:12:01.000Z,37.63
2018-06-28T07:12:11.000Z,37.54
2018-06-28T07:12:21.000Z,37.45
2018-06-28T07:12:31.000Z,37.13
2018-06-28T07:12:41.000Z,37.43
2018-06-28T07:12:51.000Z,37.52
2018-06-28T07:13:01.000Z,37.62
2018-06-28T07:13:11.000Z,37.23
2018-06-28T07:13:21.000Z,37.81
2018-06-28T07:13:31.000Z,37.62
2018-06-28T07:13:41.000Z,37.91
2018-06-28T07:13:51.000Z,38.10
2018-06-28T07:14:01.000Z,37.99
2018-06-28T07:14:11.000Z,38.09
2018-06-28T07:14:21.000Z,37.99
2018-06-28T07:14:31.000Z,38.38
2018-06-28T07:14:45.000Z,38.09
2018-06-28T07:14:55.000Z,38.07
2018-06-28T07:15:05.000Z,38.07
2018-06-28T07:15:15.000Z,37.77
2018-06-28T07:15:25.000Z,38.36
2018-06-28T07:15:35.000Z,38.75
2018-06-28T07:15:45.000Z,38.85
2018-06-28T07:15:55.000Z,38.65
2018-06-28T07:16:05.000Z,38.85
2018-06-28T07:16:15.000Z,38.56
2018-06-28T07:16:25.000Z,38.85
2018-06-28T07:16:35.000Z,38.85
2018-06-28T07:16:46.000Z,38.36
2018-06-28T07:16:56.000Z,38.46
2018-06-28T07:17:06.000Z,38.75
2018-06-28T07:17:16.000Z,38.17
2018-06-28T07:17:26.000Z,37.68
2018-06-28T07:17:37.000Z,37.58
2018-06-28T07:17:47.000Z,37.68
2018-06-28T07:17:57.000Z,37.39
2018-06-28T07:18:07.000Z,37.48
2018-06-28T07:18:17.000Z,37.10
2018-06-28T07:18:27.000Z,37.77
2018-06-28T07:18:37.000Z,37.77
2018-06-28T07:18:50.000Z,37.48
2018-06-28T07:19:00.000Z,37.58
2018-06-28T07:19:10.000Z,37.48
2018-06-28T07:19:20.000Z,37.77
2018-06-28T07:19:30.000Z,37.68
2018-06-28T07:19:40.000Z,37.58
2018-06-28T07:19:50.000Z,37.19
2018-06-28T07:20:00.000Z,37.19
2018-06-28T07:20:10.000Z,37.39
2018-06-28T07:20:20.000Z,37.58
2018-06-28T07:20:30.000Z,37.48
2018-06-28T07:20:40.000Z,37.58
2018-06-28T07:20:50.000Z,37.87
2018-06-28T07:21:00.000Z,38.26
2018-06-28T07:21:10.000Z,38.26
2018-06-28T07:21:20.000Z,38.36
2018-06-28T07:21:30.000Z,38.36
2018-06-28T07:21:40.000Z,38.17
2018-06-28T07:21:50.000Z,38.07
2018-06-28T07:22:00.000Z,38.36
2018-06-28T07:22:10.000Z,38.85
2018-06-28T07:22:20.000Z,38.75
2018-06-28T07:22:30.000Z,38.75
2018-06-28T07:22:40.000Z,38.95
2018-06-28T07:22:50.000Z,39.72
2018-06-28T07:23:00.000Z,40.01
2018-06-28T07:23:10.000Z,40.11
2018-06-28T07:23:20.000Z,40.31
2018-06-28T07:23:30.000Z,40.58
2018-06-28T07:23:40.000Z,40.29
2018-06-28T07:23:50.000Z,40.00
2018-06-28T07:24:00.000Z,39.90
2018-06-28T07:24:10.000Z,39.70
2018-06-28T07:24:20.000Z,39.61
2018-06-28T07:24:30.000Z,39.70
2018-06-28T07:24:40.000Z,39.80
2018-06-28T07:24:50.000Z,39.03
2018-06-28T07:25:00.000Z,38.73
2018-06-28T07:25:10.000Z,38.73
2018-06-28T07:25:20.000Z,38.73
2018-06-28T07:25:30.000Z,38.83
2018-06-28T07:25:40.000Z,38.44
2018-06-28T07:25:50.000Z,38.73
2018-06-28T07:26:00.000Z,39.03
2018-06-28T07:26:10.000Z,38.81
2018-06-28T07:26:20.000Z,38.71
2018-06-28T07:26:30.000Z,38.32
2018-06-28T07:26:43.000Z,38.32
2018-06-28T07:26:53.000Z,38.52
2018-06-28T07:27:03.000Z,38.71
2018-06-28T07:27:13.000Z,38.81
2018-06-28T07:27:23.000Z,38.71
2018-06-28T07:27:33.000Z,38.71
2018-06-28T07:27:43.000Z,38.42
2018-06-28T07:27:53.000Z,38.42
2018-06-28T07:28:03.000Z,38.71
2018-06-28T07:28:13.000Z,38.32
2018-06-28T07:28:25.000Z,38.13
2018-06-28T07:28:35.000Z,38.32
2018-06-28T07:28:45.000Z,38.23
2018-06-28T07:28:55.000Z,38.32
2018-06-28T07:29:05.000Z,38.42
2018-06-28T07:29:15.000Z,38.13
2018-06-28T07:29:25.000Z,38.23
2018-06-28T07:29:35.000Z,38.62
2018-06-28T07:29:45.000Z,38.03
2018-06-28T07:29:55.000Z,38.03
2018-06-28T07:30:05.000Z,38.03
2018-06-28T07:30:15.000Z,38.13
2018-06-28T07:30:25.000Z,38.52
2018-06-28T07:30:35.000Z,37.93
2018-06-28T07:30:48.000Z,38.62
2018-06-28T07:30:58.000Z,38.42
2018-06-28T07:31:08.000Z,38.32
2018-06-28T07:31:18.000Z,38.42
2018-06-28T07:31:28.000Z,38.62
2018-06-28T07:31:38.000Z,38.13
2018-06-28T07:31:48.000Z,38.13
2018-06-28T07:31:58.000Z,38.23
2018-06-28T07:32:08.000Z,38.71
2018-06-28T07:32:18.000Z,37.74
2018-06-28T07:32:28.000Z,38.23
2018-06-28T07:32:38.000Z,38.32
2018-06-28T07:32:48.000Z,38.52
2018-06-28T07:32:58.000Z,38.91
2018-06-28T07:33:08.000Z,39.00
2018-06-28T07:33:18.000Z,38.81
2018-06-28T07:33:28.000Z,38.81
2018-06-28T07:33:38.000Z,38.62
2018-06-28T07:33:48.000Z,39.00
2018-06-28T07:33:58.000Z,39.00
2018-06-28T07:34:08.000Z,39.20
2018-06-28T07:34:18.000Z,39.00
2018-06-28T07:34:28.000Z,38.81
2018-06-28T07:34:38.000Z,38.91
2018-06-28T07:34:48.000Z,39.00
2018-06-28T07:34:58.000Z,38.62
2018-06-28T07:35:08.000Z,38.52
2018-06-28T07:35:18.000Z,38.62
2018-06-28T07:35:28.000Z,38.32
2018-06-28T07:35:38.000Z,38.42
2018-06-28T07:35:48.000Z,38.13
2018-06-28T07:35:58.000Z,38.32
2018-06-28T07:36:08.000Z,38.32
2018-06-28T07:36:18.000Z,38.13
2018-06-28T07:36:28.000Z,37.74
2018-06-28T07:36:38.000Z,38.62
2018-06-28T07:36:48.000Z,38.15
2018-06-28T07:36:58.000Z,38.23
2018-06-28T07:37:11.000Z,38.15
2018-06-28T07:37:21.000Z,38.34
2018-06-28T07:37:31.000Z,38.44
2018-06-28T07:37:41.000Z,37.95
2018-06-28T07:37:51.000Z,37.46
2018-06-28T07:38:01.000Z,37.46
2018-06-28T07:38:11.000Z,37.66
2018-06-28T07:38:21.000Z,37.56
2018-06-28T07:38:31.000Z,37.56
2018-06-28T07:38:44.000Z,37.37
2018-06-28T07:38:54.000Z,37.46
2018-06-28T07:39:04.000Z,37.08
2018-06-28T07:39:25.000Z,37.18
2018-06-28T07:39:35.000Z,37.37
2018-06-28T07:39:45.000Z,37.37
2018-06-28T07:39:55.000Z,37.08
2018-06-28T07:40:05.000Z,37.37